createdAt,value
2022-10-30T00:01:22.298Z,10.25
2022-10-30T00:03:50.327Z,11.32
2022-10-30T00:08:51.270Z,8.90
2022-10-30T00:11:19.268Z,11.10
2022-10-30T00:16:17.519Z,10.13
2022-10-30T00:18:45.616Z,12.82
2022-10-30T00:21:15.909Z,12.75
2022-10-30T00:23:48.628Z,12.45
2022-10-30T00:26:17.249Z,11.80
2022-10-30T00:28:45.248Z,14.88
2022-10-30T00:31:14.140Z,12.32
2022-10-30T00:33:42.143Z,12.77
2022-10-30T00:36:10.162Z,13.20
2022-10-30T00:38:39.108Z,13.35
2022-10-30T00:41:07.037Z,12.13
2022-10-30T00:43:40.949Z,14.98
2022-10-30T00:46:15.171Z,12.90
2022-10-30T00:48:46.690Z,14.45
2022-10-30T00:51:15.547Z,13.70
2022-10-30T00:53:46.882Z,11.85
2022-10-30T00:56:19.552Z,12.55
2022-10-30T00:59:01.197Z,15.40
2022-10-30T01:01:33.582Z,12.85
2022-10-30T01:04:06.023Z,13.50
2022-10-30T01:06:36.933Z,13.52
2022-10-30T01:09:06.045Z,12.85
2022-10-30T01:11:35.228Z,12.27
2022-10-30T01:14:07.329Z,12.43
2022-10-30T01:16:47.803Z,14.98
2022-10-30T01:19:23.207Z,13.48
2022-10-30T01:21:58.838Z,11.05
2022-10-30T01:24:32.949Z,12.32
2022-10-30T01:27:27.787Z,11.52
2022-10-30T01:30:21.074Z,12.02
2022-10-30T01:33:16.257Z,11.55
2022-10-30T01:35:49.797Z,10.88
2022-10-30T01:38:29.129Z,11.52
2022-10-30T01:40:57.133Z,9.88
2022-10-30T01:43:25.161Z,10.68
2022-10-30T01:46:14.756Z,11.27
2022-10-30T01:49:06.273Z,12.55
2022-10-30T01:51:57.116Z,14.27
2022-10-30T01:54:30.905Z,13.98
2022-10-30T01:57:08.012Z,14.50
2022-10-30T02:00:10.894Z,18.85
2022-10-30T02:02:39.231Z,16.48
2022-10-30T02:05:10.459Z,16.70
2022-10-30T02:07:38.570Z,14.30
2022-10-30T02:10:07.117Z,15.10
2022-10-30T02:12:35.121Z,14.55
2022-10-30T02:15:25.451Z,18.40
2022-10-30T02:17:54.691Z,18.92
2022-10-30T02:20:23.107Z,13.05
2022-10-30T02:22:57.968Z,16.25
2022-10-30T02:25:27.691Z,15.45
2022-10-30T02:27:58.812Z,14.43
2022-10-30T02:30:26.872Z,16.17
2022-10-30T02:32:54.998Z,17.02
2022-10-30T02:35:23.386Z,15.48
2022-10-30T02:37:51.301Z,17.77
2022-10-30T02:40:19.249Z,17.08
2022-10-30T02:42:55.757Z,18.88
2022-10-30T02:45:23.991Z,14.75
2022-10-30T02:47:52.011Z,15.63
2022-10-30T02:50:21.176Z,14.18
2022-10-30T02:52:49.161Z,15.20
2022-10-30T02:55:17.357Z,17.65
2022-10-30T02:57:45.513Z,15.45
2022-10-30T03:00:14.146Z,17.10
2022-10-30T03:02:42.116Z,22.67
2022-10-30T03:05:11.224Z,23.15
2022-10-30T03:07:39.219Z,23.65
2022-10-30T03:10:07.397Z,22.88
2022-10-30T03:12:38.425Z,19.20
2022-10-30T03:15:06.992Z,22.17
2022-10-30T03:17:36.809Z,17.90
2022-10-30T03:20:07.635Z,18.98
2022-10-30T03:22:35.661Z,21.08
2022-10-30T03:25:04.091Z,20.15
2022-10-30T03:27:32.836Z,16.13
2022-10-30T03:30:00.836Z,18.80
2022-10-30T03:32:28.814Z,17.20
2022-10-30T03:34:57.002Z,16.20
2022-10-30T03:37:24.967Z,17.80
2022-10-30T03:39:52.989Z,16.77
2022-10-30T03:42:21.148Z,19.33
2022-10-30T03:44:49.052Z,13.52
2022-10-30T03:47:17.016Z,18.60
2022-10-30T03:49:49.116Z,15.13
2022-10-30T03:52:17.138Z,14.90
2022-10-30T03:54:45.049Z,14.48
2022-10-30T03:57:13.180Z,13.55
2022-10-30T03:59:41.157Z,16.38
2022-10-30T04:02:09.366Z,14.43
2022-10-30T04:04:38.604Z,14.27
2022-10-30T04:07:06.543Z,14.82
2022-10-30T04:09:34.568Z,13.45
2022-10-30T04:12:02.689Z,13.05
2022-10-30T04:14:30.602Z,16.40
2022-10-30T04:16:58.605Z,13.43
2022-10-30T04:19:28.641Z,15.38
2022-10-30T04:21:56.569Z,12.95
2022-10-30T04:24:24.759Z,13.40
2022-10-30T04:26:53.279Z,15.38
2022-10-30T04:29:21.474Z,13.35
2022-10-30T04:31:49.467Z,15.35
2022-10-30T04:34:20.236Z,12.98
2022-10-30T04:36:48.281Z,10.90
2022-10-30T04:39:16.297Z,13.80
2022-10-30T04:41:44.420Z,14.88
2022-10-30T04:44:12.356Z,16.83
2022-10-30T04:46:40.250Z,15.07
2022-10-30T04:49:08.445Z,13.57
2022-10-30T04:51:36.548Z,18.75
2022-10-30T04:54:04.610Z,10.20
2022-10-30T04:56:34.108Z,12.25
2022-10-30T04:59:02.155Z,12.25
2022-10-30T05:01:30.286Z,11.98
2022-10-30T05:03:59.779Z,11.18
2022-10-30T05:06:33.450Z,12.43
2022-10-30T05:09:01.554Z,13.30
2022-10-30T05:11:30.000Z,12.18
2022-10-30T05:13:57.984Z,10.20
2022-10-30T05:16:26.028Z,9.75
2022-10-30T05:18:55.109Z,10.65
2022-10-30T05:21:23.430Z,14.45
2022-10-30T05:23:51.438Z,12.30
2022-10-30T05:26:20.669Z,11.20
2022-10-30T05:28:48.649Z,13.90
2022-10-30T05:31:16.668Z,13.80
2022-10-30T05:33:44.809Z,15.48
2022-10-30T05:36:12.735Z,14.90
2022-10-30T05:38:40.749Z,13.82
2022-10-30T05:41:09.830Z,13.30
2022-10-30T05:43:37.753Z,12.52
2022-10-30T05:46:05.884Z,11.32
2022-10-30T05:48:34.460Z,12.77
2022-10-30T05:51:03.043Z,12.70
2022-10-30T05:53:31.314Z,15.00
2022-10-30T05:56:00.392Z,13.65
2022-10-30T05:58:28.395Z,12.45
2022-10-30T06:00:56.293Z,11.93
2022-10-30T06:03:24.360Z,12.68
2022-10-30T06:05:53.650Z,11.27
2022-10-30T06:08:21.713Z,15.27
2022-10-30T06:10:49.649Z,13.02
2022-10-30T06:13:17.763Z,15.15
2022-10-30T06:15:46.358Z,14.20
2022-10-30T06:18:14.475Z,10.85
2022-10-30T06:20:44.491Z,10.80
2022-10-30T06:23:12.466Z,14.55
2022-10-30T06:25:41.538Z,11.82
2022-10-30T06:28:14.660Z,18.13
2022-10-30T06:30:42.724Z,11.68
2022-10-30T06:33:11.353Z,11.18
2022-10-30T06:35:40.364Z,11.47
2022-10-30T06:38:09.401Z,15.02
2022-10-30T06:40:37.396Z,12.77
2022-10-30T06:43:05.518Z,14.05
2022-10-30T06:45:34.104Z,12.05
2022-10-30T06:48:04.711Z,10.70
2022-10-30T06:50:33.944Z,8.02
2022-10-30T06:53:01.953Z,10.45
2022-10-30T06:55:30.007Z,9.18
2022-10-30T06:58:01.771Z,11.52
2022-10-30T07:00:30.134Z,9.10
2022-10-30T07:03:01.663Z,9.35
2022-10-30T07:05:30.492Z,8.35
2022-10-30T07:07:58.913Z,11.02
2022-10-30T07:10:26.999Z,9.40
2022-10-30T07:12:58.214Z,8.63
2022-10-30T07:15:28.058Z,9.30
2022-10-30T07:18:03.708Z,7.97
2022-10-30T07:20:36.386Z,9.60
2022-10-30T07:23:06.261Z,8.50
2022-10-30T07:25:34.214Z,11.30
2022-10-30T07:28:05.573Z,10.57
2022-10-30T07:30:33.554Z,7.15
2022-10-30T07:33:04.020Z,8.02
2022-10-30T07:35:33.904Z,9.48
2022-10-30T07:38:11.528Z,8.07
2022-10-30T07:40:40.996Z,10.90
2022-10-30T07:43:13.931Z,9.77
2022-10-30T07:45:41.916Z,17.80
2022-10-30T07:48:10.912Z,9.52
2022-10-30T07:50:38.896Z,8.50
2022-10-30T07:53:06.847Z,9.43
2022-10-30T07:55:35.763Z,10.45
2022-10-30T07:58:03.688Z,8.38
2022-10-30T08:00:31.717Z,8.68
2022-10-30T08:03:01.768Z,8.88
2022-10-30T08:05:30.606Z,7.40
2022-10-30T08:07:59.568Z,6.95
2022-10-30T08:10:29.810Z,10.25
2022-10-30T08:12:57.969Z,10.00
2022-10-30T08:15:26.028Z,10.15
2022-10-30T08:17:55.783Z,14.57
2022-10-30T08:20:25.667Z,11.73
2022-10-30T08:25:26.712Z,10.38
2022-10-30T08:28:07.013Z,9.18
2022-10-30T08:30:38.244Z,6.85
2022-10-30T08:33:09.131Z,5.60
2022-10-30T08:38:10.024Z,7.13
2022-10-30T08:40:38.105Z,6.50
2022-10-30T08:43:06.108Z,8.15
2022-10-30T08:45:34.213Z,9.75
2022-10-30T08:48:04.877Z,7.18
2022-10-30T08:50:34.571Z,6.72
2022-10-30T08:53:08.323Z,9.20
2022-10-30T08:55:36.603Z,6.90
2022-10-30T08:58:05.235Z,6.65
2022-10-30T09:00:33.421Z,5.25
2022-10-30T09:03:01.847Z,6.03
2022-10-30T09:05:31.320Z,6.47
2022-10-30T09:08:02.421Z,6.95
2022-10-30T09:10:31.319Z,6.35
2022-10-30T09:13:00.595Z,5.93
2022-10-30T09:15:29.040Z,5.97
2022-10-30T09:18:02.281Z,6.43
2022-10-30T09:20:32.055Z,6.18
2022-10-30T09:23:00.777Z,6.97
2022-10-30T09:25:29.338Z,7.85
2022-10-30T09:27:57.336Z,7.47
2022-10-30T09:30:27.457Z,6.28
2022-10-30T09:32:59.701Z,5.13
2022-10-30T09:35:28.248Z,6.78
2022-10-30T09:37:57.886Z,7.80
2022-10-30T09:40:50.863Z,7.65
2022-10-30T09:43:52.162Z,6.00
2022-10-30T09:46:44.901Z,6.88
2022-10-30T09:49:35.955Z,9.52
2022-10-30T09:52:07.082Z,9.60
2022-10-30T09:54:53.368Z,10.25
2022-10-30T09:57:34.041Z,7.28
2022-10-30T10:00:18.648Z,8.93
2022-10-30T10:02:59.919Z,8.13
2022-10-30T10:05:37.983Z,10.55
2022-10-30T10:08:14.078Z,11.30
2022-10-30T10:10:46.784Z,11.07
2022-10-30T10:13:26.810Z,12.75
2022-10-30T10:16:14.855Z,23.90
2022-10-30T10:18:52.908Z,14.27
2022-10-30T10:21:30.039Z,11.23
2022-10-30T10:24:04.528Z,13.80
2022-10-30T10:26:54.799Z,12.57
2022-10-30T10:29:49.035Z,14.13
2022-10-30T10:32:34.394Z,11.35
2022-10-30T10:35:02.309Z,11.70
2022-10-30T10:38:37.538Z,14.00
2022-10-30T10:41:28.200Z,11.82
2022-10-30T10:44:15.533Z,17.23
2022-10-30T10:47:17.082Z,11.32
2022-10-30T10:50:12.230Z,13.25
2022-10-30T10:52:52.477Z,15.60
2022-10-30T10:55:27.891Z,11.73
2022-10-30T10:58:00.458Z,13.68
2022-10-30T11:00:31.187Z,15.95
2022-10-30T11:03:07.928Z,15.93
2022-10-30T11:05:59.150Z,13.63
2022-10-30T11:08:32.140Z,15.20
2022-10-30T11:11:05.983Z,13.63
2022-10-30T11:13:43.322Z,18.17
2022-10-30T11:16:17.106Z,12.38
2022-10-30T11:18:47.629Z,14.60
2022-10-30T11:21:23.582Z,13.80
2022-10-30T11:23:52.389Z,13.00
2022-10-30T11:26:26.351Z,14.80
2022-10-30T11:29:00.194Z,14.88
2022-10-30T11:31:41.334Z,18.48
2022-10-30T11:34:18.450Z,19.75
2022-10-30T11:36:52.165Z,19.63
2022-10-30T11:39:38.042Z,23.80
2022-10-30T11:42:15.296Z,25.23
2022-10-30T11:44:51.591Z,25.17
2022-10-30T11:47:32.972Z,28.40
2022-10-30T11:50:08.657Z,30.45
2022-10-30T11:52:43.735Z,33.33
2022-10-30T11:55:21.400Z,31.48
2022-10-30T11:57:53.147Z,37.30
2022-10-30T12:00:28.457Z,39.45
2022-10-30T12:03:01.428Z,36.40
2022-10-30T12:05:44.871Z,33.33
2022-10-30T12:08:24.671Z,43.92
2022-10-30T12:10:53.543Z,35.22
2022-10-30T12:13:23.807Z,34.10
2022-10-30T12:16:16.588Z,35.78
2022-10-30T12:19:04.969Z,43.42
2022-10-30T12:21:43.592Z,34.75
2022-10-30T12:24:32.649Z,33.93
2022-10-30T12:27:11.322Z,30.23
2022-10-30T12:30:09.214Z,31.07
2022-10-30T12:32:53.549Z,30.13
2022-10-30T12:35:45.552Z,27.30
2022-10-30T12:38:42.889Z,31.98
2022-10-30T12:41:27.112Z,27.85
2022-10-30T12:44:14.439Z,24.38
2022-10-30T12:47:22.897Z,23.63
2022-10-30T12:52:48.017Z,20.00
2022-10-30T12:55:26.331Z,16.85
2022-10-30T12:58:06.357Z,16.83
2022-10-30T13:00:42.439Z,16.83
2022-10-30T13:03:28.579Z,15.43
2022-10-30T13:06:08.222Z,17.25
2022-10-30T13:11:22.975Z,15.25
2022-10-30T13:13:53.861Z,13.73
2022-10-30T13:16:34.558Z,13.23
2022-10-30T13:19:04.548Z,11.90
2022-10-30T13:21:51.608Z,13.32
2022-10-30T13:24:45.709Z,10.00
2022-10-30T13:27:35.062Z,13.57
2022-10-30T13:30:07.398Z,12.90
2022-10-30T13:33:06.364Z,13.18
2022-10-30T13:36:03.702Z,10.27
2022-10-30T13:38:44.280Z,20.42
2022-10-30T13:41:58.709Z,14.77
2022-10-30T13:44:53.151Z,16.33
2022-10-30T13:47:56.345Z,9.90
2022-10-30T13:50:48.763Z,13.45
2022-10-30T13:53:26.687Z,14.82
2022-10-30T13:55:58.106Z,17.55
2022-10-30T13:58:40.772Z,17.90
2022-10-30T14:01:22.156Z,14.73
2022-10-30T14:04:05.130Z,14.32
2022-10-30T14:06:37.196Z,13.98
2022-10-30T14:09:29.936Z,15.55
2022-10-30T14:12:23.644Z,15.82
2022-10-30T14:14:51.644Z,18.45
2022-10-30T14:17:19.637Z,20.52
2022-10-30T14:20:15.835Z,19.65
2022-10-30T14:22:44.043Z,21.75
2022-10-30T14:25:20.304Z,19.55
2022-10-30T14:27:57.670Z,13.52
2022-10-30T14:30:31.507Z,15.45
2022-10-30T14:32:59.488Z,10.90
2022-10-30T14:35:36.499Z,12.07
2022-10-30T14:38:10.464Z,15.50
2022-10-30T14:40:48.594Z,17.52
2022-10-30T14:43:34.181Z,13.57
2022-10-30T14:46:13.566Z,17.10
2022-10-30T14:48:55.364Z,15.70
2022-10-30T14:51:38.811Z,13.50
2022-10-30T14:54:28.482Z,15.30
2022-10-30T14:56:58.271Z,19.05
2022-10-30T14:59:36.598Z,13.98
2022-10-30T15:02:07.562Z,15.32
2022-10-30T15:04:53.547Z,18.52
2022-10-30T15:07:40.431Z,14.18
2022-10-30T15:10:29.707Z,16.23
2022-10-30T15:13:10.901Z,13.88
2022-10-30T15:15:39.105Z,12.93
2022-10-30T15:18:18.097Z,39.33
2022-10-30T15:20:53.121Z,38.28
2022-10-30T15:23:30.759Z,18.52
2022-10-30T15:26:09.451Z,13.73
2022-10-30T15:28:42.253Z,12.45
2022-10-30T15:31:19.311Z,14.25
2022-10-30T15:33:48.806Z,16.13
2022-10-30T15:36:22.429Z,13.75
2022-10-30T15:39:16.832Z,13.98
2022-10-30T15:42:00.649Z,10.57
2022-10-30T15:44:39.649Z,14.35
2022-10-30T15:47:15.946Z,16.02
2022-10-30T15:49:51.434Z,11.85
2022-10-30T15:52:23.502Z,13.30
2022-10-30T15:55:23.859Z,29.15
2022-10-30T15:58:09.663Z,22.52
2022-10-30T16:00:39.806Z,16.10
2022-10-30T16:03:13.587Z,18.77
2022-10-30T16:05:41.746Z,14.15
2022-10-30T16:08:27.424Z,11.57
2022-10-30T16:10:56.811Z,12.13
2022-10-30T16:13:32.369Z,14.35
2022-10-30T16:16:02.615Z,14.73
2022-10-30T16:18:36.500Z,15.27
2022-10-30T16:21:09.352Z,21.48
2022-10-30T16:23:43.492Z,24.17
2022-10-30T16:26:24.897Z,23.30
2022-10-30T16:28:52.919Z,22.50
2022-10-30T16:31:22.046Z,29.63
2022-10-30T16:33:50.407Z,31.15
2022-10-30T16:36:19.278Z,23.77
2022-10-30T16:38:49.716Z,21.35
2022-10-30T16:41:25.713Z,29.08
2022-10-30T16:44:25.059Z,24.95
2022-10-30T16:47:02.019Z,21.95
2022-10-30T16:49:35.691Z,17.50
2022-10-30T16:52:08.464Z,16.95
2022-10-30T16:54:42.833Z,13.50
2022-10-30T16:57:19.100Z,15.48
2022-10-30T16:59:51.708Z,13.77
2022-10-30T17:02:26.986Z,11.55
2022-10-30T17:05:01.410Z,12.38
2022-10-30T17:07:30.975Z,10.32
2022-10-30T17:09:59.163Z,12.52
2022-10-30T17:12:29.679Z,15.15
2022-10-30T17:15:15.213Z,11.68
2022-10-30T17:17:43.559Z,14.30
2022-10-30T17:20:14.130Z,13.90
2022-10-30T17:22:42.782Z,13.38
2022-10-30T17:25:36.401Z,14.03
2022-10-30T17:28:05.636Z,11.75
2022-10-30T17:30:42.272Z,12.75
2022-10-30T17:33:27.596Z,11.40
2022-10-30T17:35:55.772Z,12.82
2022-10-30T17:38:23.985Z,10.23
2022-10-30T17:40:53.122Z,10.95
2022-10-30T17:43:21.301Z,9.75
2022-10-30T17:45:49.813Z,10.20
2022-10-30T17:48:18.967Z,11.60
2022-10-30T17:50:47.032Z,9.45
2022-10-30T17:53:23.570Z,9.85
2022-10-30T17:56:04.490Z,11.40
2022-10-30T17:58:32.622Z,8.88
2022-10-30T18:01:01.336Z,9.70
2022-10-30T18:03:29.443Z,10.93
2022-10-30T18:05:59.317Z,8.48
2022-10-30T18:08:27.432Z,9.18
2022-10-30T18:10:55.505Z,11.05
2022-10-30T18:13:24.457Z,8.68
2022-10-30T18:15:59.397Z,9.38
2022-10-30T18:18:28.387Z,9.10
2022-10-30T18:20:56.363Z,9.18
2022-10-30T18:23:51.187Z,9.68
2022-10-30T18:26:19.039Z,8.68
2022-10-30T18:28:48.317Z,8.82
2022-10-30T18:31:19.603Z,8.43
2022-10-30T18:33:49.725Z,12.30
2022-10-30T18:36:23.989Z,6.70
2022-10-30T18:38:59.222Z,8.05
2022-10-30T18:41:34.355Z,9.93
2022-10-30T18:44:02.695Z,8.57
2022-10-30T18:46:35.713Z,7.40
2022-10-30T18:49:03.732Z,8.15
2022-10-30T18:51:31.702Z,6.60
2022-10-30T18:54:02.694Z,11.57
2022-10-30T18:56:33.301Z,6.22
2022-10-30T18:59:02.570Z,7.68
2022-10-30T19:01:36.740Z,7.45
2022-10-30T19:04:06.898Z,7.63
2022-10-30T19:06:34.975Z,7.32
2022-10-30T19:09:03.153Z,8.05
2022-10-30T19:11:31.775Z,6.75
2022-10-30T19:14:00.826Z,8.93
2022-10-30T19:16:29.179Z,7.40
2022-10-30T19:18:57.123Z,9.40
2022-10-30T19:21:27.061Z,8.73
2022-10-30T19:24:03.724Z,9.93
2022-10-30T19:26:31.642Z,14.13
2022-10-30T19:28:59.606Z,12.02
2022-10-30T19:31:27.868Z,12.02
2022-10-30T19:33:57.427Z,12.90
2022-10-30T19:36:30.437Z,9.73
2022-10-30T19:39:00.067Z,10.75
2022-10-30T19:44:03.966Z,12.32
2022-10-30T19:46:32.078Z,11.98
2022-10-30T19:49:00.623Z,7.75
2022-10-30T19:51:29.668Z,9.48
2022-10-30T19:53:58.020Z,8.98
2022-10-30T19:56:26.036Z,8.95
2022-10-30T19:58:53.952Z,10.05
2022-10-30T20:01:23.947Z,7.38
2022-10-30T20:03:53.288Z,8.55
2022-10-30T20:06:22.087Z,6.75
2022-10-30T20:08:51.211Z,9.30
2022-10-30T20:11:19.206Z,7.88
2022-10-30T20:13:50.598Z,8.02
2022-10-30T20:16:22.638Z,9.50
2022-10-30T20:18:51.525Z,6.85
2022-10-30T20:21:20.986Z,6.28
2022-10-30T20:28:55.420Z,7.50
2022-10-30T20:33:51.342Z,7.97
2022-10-30T20:36:19.594Z,8.82
2022-10-30T20:38:47.774Z,6.18
2022-10-30T20:41:29.513Z,6.28
2022-10-30T20:43:57.632Z,5.90
2022-10-30T20:46:25.688Z,6.47
2022-10-30T20:48:53.626Z,7.88
2022-10-30T20:51:25.913Z,8.07
2022-10-30T20:53:54.106Z,8.38
2022-10-30T20:56:22.092Z,10.50
2022-10-30T20:58:50.359Z,9.77
2022-10-30T21:01:18.609Z,7.93
2022-10-30T21:03:47.537Z,6.03
2022-10-30T21:06:16.456Z,8.50
2022-10-30T21:08:44.398Z,6.32
2022-10-30T21:11:12.353Z,8.65
2022-10-30T21:13:41.388Z,6.60
2022-10-30T21:16:10.345Z,8.35
2022-10-30T21:18:38.347Z,6.35
2022-10-30T21:21:09.328Z,10.15
2022-10-30T21:23:37.326Z,8.32
2022-10-30T21:26:11.589Z,9.38
2022-10-30T21:28:43.198Z,9.50
2022-10-30T21:31:13.940Z,10.23
2022-10-30T21:33:42.080Z,8.88
2022-10-30T21:36:15.399Z,8.75
2022-10-30T21:38:47.623Z,9.18
2022-10-30T21:41:20.452Z,9.57
2022-10-30T21:43:57.479Z,8.77
2022-10-30T21:46:28.341Z,9.27
2022-10-30T21:48:56.902Z,7.13
2022-10-30T21:51:27.270Z,9.18
2022-10-30T21:53:58.691Z,6.95
2022-10-30T21:56:28.919Z,7.45
2022-10-30T21:58:59.864Z,7.55
2022-10-30T22:01:31.459Z,7.00
2022-10-30T22:04:00.958Z,10.45
2022-10-30T22:06:30.178Z,8.63
2022-10-30T22:09:00.205Z,7.35
2022-10-30T22:11:30.255Z,6.28
2022-10-30T22:14:01.445Z,8.75
2022-10-30T22:16:32.427Z,8.15
2022-10-30T22:19:01.169Z,8.38
2022-10-30T22:21:30.244Z,7.15
2022-10-30T22:24:01.542Z,7.85
2022-10-30T22:26:30.085Z,8.70
2022-10-30T22:29:00.842Z,9.25
2022-10-30T22:31:30.471Z,8.05
2022-10-30T22:34:01.445Z,7.60
2022-10-30T22:36:34.233Z,10.57
2022-10-30T22:39:13.419Z,9.77
2022-10-30T22:41:42.406Z,6.32
2022-10-30T22:44:15.067Z,8.80
2022-10-30T22:46:46.377Z,8.18
2022-10-30T22:49:14.368Z,7.82
2022-10-30T22:51:42.293Z,8.70
2022-10-30T22:54:14.016Z,7.10
2022-10-30T22:56:42.812Z,6.57
2022-10-30T22:59:15.236Z,5.85
2022-10-30T23:01:45.753Z,5.57
2022-10-30T23:04:16.676Z,7.20
2022-10-30T23:06:45.493Z,8.63
2022-10-30T23:09:25.784Z,6.63
2022-10-30T23:11:53.739Z,6.20
2022-10-30T23:14:21.717Z,7.43
2022-10-30T23:16:50.644Z,7.72
2022-10-30T23:19:18.585Z,7.00
2022-10-30T23:21:46.524Z,6.88
2022-10-30T23:24:14.740Z,6.18
2022-10-30T23:26:42.739Z,6.00
2022-10-30T23:29:10.699Z,7.30
2022-10-30T23:31:41.896Z,4.63
2022-10-30T23:34:15.382Z,6.75
2022-10-30T23:36:45.122Z,5.50
2022-10-30T23:39:19.474Z,5.22
2022-10-30T23:41:47.498Z,5.05
2022-10-30T23:44:16.825Z,5.57
2022-10-30T23:49:12.774Z,6.30
2022-10-30T23:51:40.744Z,9.95
2022-10-30T23:54:11.697Z,7.07
2022-10-30T23:56:39.663Z,8.35
2022-10-30T23:59:07.730Z,7.13
